sensor_id;sensor_type;location;lat;lon;timestamp;P1;durP1;ratioP1;P2;durP2;ratioP2
6358;SDS011;3212;51.460;11.868;2023-08-01T00:01:59;7.07;;;4.27;;
6358;SDS011;3212;51.460;11.868;2023-08-01T00:05:23;6.37;;;4.17;;
6358;SDS011;3212;51.460;11.868;2023-08-01T00:08:45;6.73;;;3.37;;
6358;SDS011;3212;51.460;11.868;2023-08-01T00:12:07;5.27;;;3.70;;
6358;SDS011;3212;51.460;11.868;2023-08-01T00:15:30;4.53;;;3.50;;
6358;SDS011;3212;51.460;11.868;2023-08-01T00:18:53;6.70;;;3.73;;
6358;SDS011;3212;51.460;11.868;2023-08-01T00:22:16;5.00;;;3.67;;
6358;SDS011;3212;51.460;11.868;2023-08-01T00:25:39;5.37;;;3.33;;
6358;SDS011;3212;51.460;11.868;2023-08-01T00:29:01;4.70;;;2.90;;
6358;SDS011;3212;51.460;11.868;2023-08-01T00:32:24;4.80;;;3.10;;
6358;SDS011;3212;51.460;11.868;2023-08-01T00:35:52;4.70;;;3.30;;
6358;SDS011;3212;51.460;11.868;2023-08-01T00:39:09;4.57;;;2.83;;
6358;SDS011;3212;51.460;11.868;2023-08-01T00:42:32;3.90;;;2.63;;
6358;SDS011;3212;51.460;11.868;2023-08-01T00:45:57;3.83;;;2.47;;
6358;SDS011;3212;51.460;11.868;2023-08-01T00:49:17;5.43;;;2.50;;
6358;SDS011;3212;51.460;11.868;2023-08-01T00:52:40;3.57;;;2.57;;
6358;SDS011;3212;51.460;11.868;2023-08-01T00:56:03;5.07;;;2.67;;
6358;SDS011;3212;51.460;11.868;2023-08-01T00:59:25;3.63;;;2.10;;
6358;SDS011;3212;51.460;11.868;2023-08-01T01:02:48;3.03;;;2.20;;
6358;SDS011;3212;51.460;11.868;2023-08-01T01:06:13;5.07;;;2.00;;
6358;SDS011;3212;51.460;11.868;2023-08-01T01:09:50;4.80;;;2.37;;
6358;SDS011;3212;51.460;11.868;2023-08-01T01:13:12;3.40;;;2.20;;
6358;SDS011;3212;51.460;11.868;2023-08-01T01:16:35;3.33;;;2.33;;
6358;SDS011;3212;51.460;11.868;2023-08-01T01:19:59;3.03;;;2.10;;
6358;SDS011;3212;51.460;11.868;2023-08-01T01:23:21;3.30;;;2.20;;
6358;SDS011;3212;51.460;11.868;2023-08-01T01:26:43;5.30;;;2.23;;
6358;SDS011;3212;51.460;11.868;2023-08-01T01:30:06;2.13;;;1.87;;
6358;SDS011;3212;51.460;11.868;2023-08-01T01:33:29;3.93;;;2.23;;
6358;SDS011;3212;51.460;11.868;2023-08-01T01:36:51;2.93;;;2.20;;
6358;SDS011;3212;51.460;11.868;2023-08-01T01:40:14;3.50;;;2.23;;
6358;SDS011;3212;51.460;11.868;2023-08-01T01:43:37;6.63;;;2.40;;
6358;SDS011;3212;51.460;11.868;2023-08-01T01:46:59;3.53;;;1.93;;
6358;SDS011;3212;51.460;11.868;2023-08-01T01:50:22;4.60;;;2.00;;
6358;SDS011;3212;51.460;11.868;2023-08-01T01:53:44;3.30;;;2.27;;
6358;SDS011;3212;51.460;11.868;2023-08-01T01:57:07;2.87;;;2.10;;
6358;SDS011;3212;51.460;11.868;2023-08-01T02:00:30;4.00;;;2.47;;
6358;SDS011;3212;51.460;11.868;2023-08-01T02:03:52;3.50;;;2.40;;
6358;SDS011;3212;51.460;11.868;2023-08-01T02:07:15;4.27;;;2.47;;
6358;SDS011;3212;51.460;11.868;2023-08-01T02:10:38;4.00;;;2.50;;
6358;SDS011;3212;51.460;11.868;2023-08-01T02:14:00;5.40;;;2.70;;
6358;SDS011;3212;51.460;11.868;2023-08-01T02:17:22;4.80;;;3.07;;
6358;SDS011;3212;51.460;11.868;2023-08-01T02:20:45;8.13;;;2.90;;
6358;SDS011;3212;51.460;11.868;2023-08-01T02:24:07;3.80;;;2.70;;
6358;SDS011;3212;51.460;11.868;2023-08-01T02:27:31;5.27;;;3.17;;
6358;SDS011;3212;51.460;11.868;2023-08-01T02:30:54;6.67;;;3.10;;
6358;SDS011;3212;51.460;11.868;2023-08-01T02:34:16;4.00;;;2.77;;
6358;SDS011;3212;51.460;11.868;2023-08-01T02:37:39;5.27;;;2.70;;
6358;SDS011;3212;51.460;11.868;2023-08-01T02:41:02;3.90;;;3.00;;
6358;SDS011;3212;51.460;11.868;2023-08-01T02:44:25;6.30;;;3.20;;
6358;SDS011;3212;51.460;11.868;2023-08-01T02:47:47;4.40;;;2.70;;
6358;SDS011;3212;51.460;11.868;2023-08-01T02:51:10;3.00;;;2.43;;
6358;SDS011;3212;51.460;11.868;2023-08-01T02:54:32;4.80;;;2.80;;
6358;SDS011;3212;51.460;11.868;2023-08-01T02:57:55;3.27;;;2.53;;
6358;SDS011;3212;51.460;11.868;2023-08-01T03:01:17;5.03;;;2.57;;
6358;SDS011;3212;51.460;11.868;2023-08-01T03:04:40;3.93;;;2.90;;
6358;SDS011;3212;51.460;11.868;2023-08-01T03:08:03;4.07;;;2.90;;
6358;SDS011;3212;51.460;11.868;2023-08-01T03:11:25;3.00;;;2.40;;
6358;SDS011;3212;51.460;11.868;2023-08-01T03:14:47;4.23;;;2.67;;
6358;SDS011;3212;51.460;11.868;2023-08-01T03:18:10;3.43;;;2.57;;
6358;SDS011;3212;51.460;11.868;2023-08-01T03:21:33;3.83;;;2.57;;
6358;SDS011;3212;51.460;11.868;2023-08-01T03:24:55;4.70;;;2.57;;
6358;SDS011;3212;51.460;11.868;2023-08-01T03:28:18;4.10;;;2.63;;
6358;SDS011;3212;51.460;11.868;2023-08-01T03:31:41;4.83;;;2.40;;
6358;SDS011;3212;51.460;11.868;2023-08-01T03:35:04;4.00;;;2.70;;
6358;SDS011;3212;51.460;11.868;2023-08-01T03:38:28;8.60;;;2.50;;
6358;SDS011;3212;51.460;11.868;2023-08-01T03:41:50;3.60;;;2.57;;
6358;SDS011;3212;51.460;11.868;2023-08-01T03:45:14;3.30;;;2.40;;
6358;SDS011;3212;51.460;11.868;2023-08-01T03:48:36;4.13;;;2.47;;
6358;SDS011;3212;51.460;11.868;2023-08-01T03:51:59;4.93;;;2.10;;
6358;SDS011;3212;51.460;11.868;2023-08-01T03:55:21;3.30;;;2.20;;
6358;SDS011;3212;51.460;11.868;2023-08-01T03:58:44;2.63;;;1.90;;
6358;SDS011;3212;51.460;11.868;2023-08-01T04:02:06;2.37;;;1.70;;
6358;SDS011;3212;51.460;11.868;2023-08-01T04:05:29;7.70;;;2.53;;
6358;SDS011;3212;51.460;11.868;2023-08-01T04:08:52;5.40;;;2.57;;
6358;SDS011;3212;51.460;11.868;2023-08-01T04:12:15;3.10;;;2.20;;
6358;SDS011;3212;51.460;11.868;2023-08-01T04:15:39;5.60;;;2.77;;
6358;SDS011;3212;51.460;11.868;2023-08-01T04:19:01;3.97;;;2.40;;
6358;SDS011;3212;51.460;11.868;2023-08-01T04:22:23;3.17;;;1.83;;
6358;SDS011;3212;51.460;11.868;2023-08-01T04:25:47;5.27;;;1.83;;
6358;SDS011;3212;51.460;11.868;2023-08-01T04:29:10;5.83;;;2.57;;
6358;SDS011;3212;51.460;11.868;2023-08-01T04:32:32;4.03;;;2.20;;
6358;SDS011;3212;51.460;11.868;2023-08-01T04:35:56;5.50;;;2.17;;
6358;SDS011;3212;51.460;11.868;2023-08-01T04:39:19;3.97;;;2.10;;
6358;SDS011;3212;51.460;11.868;2023-08-01T04:42:43;2.12;;;1.80;;
6358;SDS011;3212;51.460;11.868;2023-08-01T04:46:05;3.10;;;1.85;;
6358;SDS011;3212;51.460;11.868;2023-08-01T04:49:28;2.93;;;1.77;;
6358;SDS011;3212;51.460;11.868;2023-08-01T04:52:51;1.53;;;1.37;;
6358;SDS011;3212;51.460;11.868;2023-08-01T04:56:14;2.77;;;1.60;;
6358;SDS011;3212;51.460;11.868;2023-08-01T04:59:36;2.70;;;1.83;;
6358;SDS011;3212;51.460;11.868;2023-08-01T05:02:58;1.90;;;1.60;;
6358;SDS011;3212;51.460;11.868;2023-08-01T05:06:21;2.53;;;1.87;;
6358;SDS011;3212;51.460;11.868;2023-08-01T05:09:43;1.57;;;1.40;;
6358;SDS011;3212;51.460;11.868;2023-08-01T05:13:06;4.53;;;1.87;;
6358;SDS011;3212;51.460;11.868;2023-08-01T05:16:29;2.90;;;1.30;;
6358;SDS011;3212;51.460;11.868;2023-08-01T05:19:52;3.43;;;1.37;;
6358;SDS011;3212;51.460;11.868;2023-08-01T05:23:14;4.30;;;1.20;;
6358;SDS011;3212;51.460;11.868;2023-08-01T05:26:37;2.10;;;1.17;;
6358;SDS011;3212;51.460;11.868;2023-08-01T05:30:00;2.90;;;1.47;;
6358;SDS011;3212;51.460;11.868;2023-08-01T05:33:22;3.40;;;0.97;;
6358;SDS011;3212;51.460;11.868;2023-08-01T05:36:45;1.27;;;1.00;;
6358;SDS011;3212;51.460;11.868;2023-08-01T05:40:09;4.07;;;1.20;;
6358;SDS011;3212;51.460;11.868;2023-08-01T05:43:32;2.17;;;1.10;;
6358;SDS011;3212;51.460;11.868;2023-08-01T05:46:55;2.77;;;1.03;;
6358;SDS011;3212;51.460;11.868;2023-08-01T05:50:18;0.90;;;0.80;;
6358;SDS011;3212;51.460;11.868;2023-08-01T05:53:40;2.13;;;1.10;;
6358;SDS011;3212;51.460;11.868;2023-08-01T05:57:03;1.10;;;0.73;;
6358;SDS011;3212;51.460;11.868;2023-08-01T06:00:26;2.03;;;1.00;;
6358;SDS011;3212;51.460;11.868;2023-08-01T06:03:49;1.63;;;0.80;;
6358;SDS011;3212;51.460;11.868;2023-08-01T06:07:11;3.60;;;1.00;;
6358;SDS011;3212;51.460;11.868;2023-08-01T06:10:34;3.30;;;0.90;;
6358;SDS011;3212;51.460;11.868;2023-08-01T06:13:56;2.17;;;0.87;;
6358;SDS011;3212;51.460;11.868;2023-08-01T06:17:19;0.83;;;0.70;;
6358;SDS011;3212;51.460;11.868;2023-08-01T06:20:42;0.90;;;0.70;;
6358;SDS011;3212;51.460;11.868;2023-08-01T06:24:04;1.63;;;0.80;;
6358;SDS011;3212;51.460;11.868;2023-08-01T06:27:27;0.90;;;0.70;;
6358;SDS011;3212;51.460;11.868;2023-08-01T06:30:50;3.73;;;1.33;;
6358;SDS011;3212;51.460;11.868;2023-08-01T06:34:13;1.33;;;0.80;;
6358;SDS011;3212;51.460;11.868;2023-08-01T06:37:36;1.93;;;0.90;;
6358;SDS011;3212;51.460;11.868;2023-08-01T06:40:58;1.60;;;0.90;;
6358;SDS011;3212;51.460;11.868;2023-08-01T06:44:21;3.83;;;0.93;;
6358;SDS011;3212;51.460;11.868;2023-08-01T06:47:44;1.33;;;0.80;;
6358;SDS011;3212;51.460;11.868;2023-08-01T06:51:07;1.25;;;0.70;;
6358;SDS011;3212;51.460;11.868;2023-08-01T06:54:29;1.00;;;0.60;;
6358;SDS011;3212;51.460;11.868;2023-08-01T06:57:52;1.10;;;0.70;;
6358;SDS011;3212;51.460;11.868;2023-08-01T07:01:15;1.70;;;0.90;;
6358;SDS011;3212;51.460;11.868;2023-08-01T07:04:37;1.47;;;0.70;;
6358;SDS011;3212;51.460;11.868;2023-08-01T07:08:00;1.30;;;0.70;;
6358;SDS011;3212;51.460;11.868;2023-08-01T07:11:24;0.80;;;0.60;;
6358;SDS011;3212;51.460;11.868;2023-08-01T07:14:47;1.13;;;0.63;;
6358;SDS011;3212;51.460;11.868;2023-08-01T07:18:10;1.40;;;0.60;;
6358;SDS011;3212;51.460;11.868;2023-08-01T07:21:33;3.37;;;0.80;;
6358;SDS011;3212;51.460;11.868;2023-08-01T07:24:56;1.70;;;1.00;;
6358;SDS011;3212;51.460;11.868;2023-08-01T07:28:18;1.17;;;0.80;;
6358;SDS011;3212;51.460;11.868;2023-08-01T07:31:42;1.10;;;0.90;;
6358;SDS011;3212;51.460;11.868;2023-08-01T07:35:05;0.90;;;0.83;;
6358;SDS011;3212;51.460;11.868;2023-08-01T07:38:29;1.60;;;0.80;;
6358;SDS011;3212;51.460;11.868;2023-08-01T07:41:52;1.10;;;0.90;;
6358;SDS011;3212;51.460;11.868;2023-08-01T07:45:14;5.73;;;0.90;;
6358;SDS011;3212;51.460;11.868;2023-08-01T07:48:37;1.00;;;0.70;;
6358;SDS011;3212;51.460;11.868;2023-08-01T07:52:00;1.60;;;0.80;;
6358;SDS011;3212;51.460;11.868;2023-08-01T07:55:24;0.80;;;0.60;;
6358;SDS011;3212;51.460;11.868;2023-08-01T07:58:47;0.90;;;0.50;;
6358;SDS011;3212;51.460;11.868;2023-08-01T08:02:09;1.00;;;0.80;;
6358;SDS011;3212;51.460;11.868;2023-08-01T08:05:32;2.00;;;0.60;;
6358;SDS011;3212;51.460;11.868;2023-08-01T08:08:54;1.20;;;0.70;;
6358;SDS011;3212;51.460;11.868;2023-08-01T08:12:18;0.70;;;0.50;;
6358;SDS011;3212;51.460;11.868;2023-08-01T08:15:40;1.00;;;0.70;;
6358;SDS011;3212;51.460;11.868;2023-08-01T08:19:03;0.80;;;0.60;;
6358;SDS011;3212;51.460;11.868;2023-08-01T08:22:25;1.70;;;0.60;;
6358;SDS011;3212;51.460;11.868;2023-08-01T08:25:49;1.00;;;0.70;;
6358;SDS011;3212;51.460;11.868;2023-08-01T08:29:12;0.80;;;0.67;;
6358;SDS011;3212;51.460;11.868;2023-08-01T08:32:36;1.00;;;0.67;;
6358;SDS011;3212;51.460;11.868;2023-08-01T08:35:59;1.67;;;0.60;;
6358;SDS011;3212;51.460;11.868;2023-08-01T08:39:21;1.73;;;1.37;;
6358;SDS011;3212;51.460;11.868;2023-08-01T08:42:44;0.70;;;0.50;;
6358;SDS011;3212;51.460;11.868;2023-08-01T08:46:08;1.60;;;0.57;;
6358;SDS011;3212;51.460;11.868;2023-08-01T08:49:30;0.73;;;0.50;;
6358;SDS011;3212;51.460;11.868;2023-08-01T08:52:52;1.07;;;0.70;;
6358;SDS011;3212;51.460;11.868;2023-08-01T08:56:15;1.27;;;0.67;;
6358;SDS011;3212;51.460;11.868;2023-08-01T08:59:38;1.13;;;0.60;;
6358;SDS011;3212;51.460;11.868;2023-08-01T09:03:01;0.90;;;0.60;;
6358;SDS011;3212;51.460;11.868;2023-08-01T09:06:24;0.70;;;0.50;;
6358;SDS011;3212;51.460;11.868;2023-08-01T09:09:46;1.20;;;0.60;;
6358;SDS011;3212;51.460;11.868;2023-08-01T09:13:08;0.80;;;0.57;;
6358;SDS011;3212;51.460;11.868;2023-08-01T09:16:32;2.37;;;0.70;;
6358;SDS011;3212;51.460;11.868;2023-08-01T09:20:03;0.97;;;0.63;;
6358;SDS011;3212;51.460;11.868;2023-08-01T09:23:25;0.90;;;0.73;;
6358;SDS011;3212;51.460;11.868;2023-08-01T09:26:49;0.70;;;0.60;;
6358;SDS011;3212;51.460;11.868;2023-08-01T09:30:13;1.63;;;0.60;;
6358;SDS011;3212;51.460;11.868;2023-08-01T09:33:38;0.87;;;0.60;;
6358;SDS011;3212;51.460;11.868;2023-08-01T09:37:00;1.00;;;0.70;;
6358;SDS011;3212;51.460;11.868;2023-08-01T09:40:22;0.80;;;0.70;;
6358;SDS011;3212;51.460;11.868;2023-08-01T09:43:46;0.90;;;0.80;;
6358;SDS011;3212;51.460;11.868;2023-08-01T09:47:08;0.80;;;0.60;;
6358;SDS011;3212;51.460;11.868;2023-08-01T09:50:31;2.00;;;0.70;;
6358;SDS011;3212;51.460;11.868;2023-08-01T09:53:55;0.80;;;0.70;;
6358;SDS011;3212;51.460;11.868;2023-08-01T09:57:16;1.03;;;0.67;;
6358;SDS011;3212;51.460;11.868;2023-08-01T10:00:39;1.63;;;0.60;;
6358;SDS011;3212;51.460;11.868;2023-08-01T10:04:02;1.87;;;0.80;;
6358;SDS011;3212;51.460;11.868;2023-08-01T10:07:25;1.37;;;0.93;;
6358;SDS011;3212;51.460;11.868;2023-08-01T10:10:47;1.57;;;1.10;;
6358;SDS011;3212;51.460;11.868;2023-08-01T10:14:09;1.20;;;1.10;;
6358;SDS011;3212;51.460;11.868;2023-08-01T10:17:31;2.83;;;1.23;;
6358;SDS011;3212;51.460;11.868;2023-08-01T10:20:55;5.43;;;1.50;;
6358;SDS011;3212;51.460;11.868;2023-08-01T10:24:18;1.90;;;1.37;;
6358;SDS011;3212;51.460;11.868;2023-08-01T10:27:41;1.63;;;1.47;;
6358;SDS011;3212;51.460;11.868;2023-08-01T10:31:08;2.10;;;1.90;;
6358;SDS011;3212;51.460;11.868;2023-08-01T10:34:32;3.07;;;1.90;;
6358;SDS011;3212;51.460;11.868;2023-08-01T10:37:54;2.17;;;1.97;;
6358;SDS011;3212;51.460;11.868;2023-08-01T10:41:26;3.03;;;1.77;;
6358;SDS011;3212;51.460;11.868;2023-08-01T10:44:52;2.37;;;1.87;;
6358;SDS011;3212;51.460;11.868;2023-08-01T10:48:15;1.97;;;1.83;;
6358;SDS011;3212;51.460;11.868;2023-08-01T10:51:38;2.57;;;2.23;;
6358;SDS011;3212;51.460;11.868;2023-08-01T10:55:02;2.10;;;1.83;;
6358;SDS011;3212;51.460;11.868;2023-08-01T10:58:26;3.03;;;1.90;;
6358;SDS011;3212;51.460;11.868;2023-08-01T11:01:48;2.83;;;1.90;;
6358;SDS011;3212;51.460;11.868;2023-08-01T11:05:11;3.73;;;1.90;;
6358;SDS011;3212;51.460;11.868;2023-08-01T11:08:34;2.40;;;1.80;;
6358;SDS011;3212;51.460;11.868;2023-08-01T11:11:59;1.77;;;1.63;;
6358;SDS011;3212;51.460;11.868;2023-08-01T11:15:22;2.30;;;1.97;;
6358;SDS011;3212;51.460;11.868;2023-08-01T11:18:45;2.67;;;2.10;;
6358;SDS011;3212;51.460;11.868;2023-08-01T11:22:08;2.70;;;1.70;;
6358;SDS011;3212;51.460;11.868;2023-08-01T11:25:33;3.90;;;1.80;;
6358;SDS011;3212;51.460;11.868;2023-08-01T11:29:00;2.40;;;2.20;;
6358;SDS011;3212;51.460;11.868;2023-08-01T11:32:20;3.50;;;2.30;;
6358;SDS011;3212;51.460;11.868;2023-08-01T11:35:42;2.90;;;2.40;;
6358;SDS011;3212;51.460;11.868;2023-08-01T11:39:05;2.87;;;2.20;;
6358;SDS011;3212;51.460;11.868;2023-08-01T11:42:30;2.57;;;2.37;;
6358;SDS011;3212;51.460;11.868;2023-08-01T11:45:55;3.43;;;2.53;;
6358;SDS011;3212;51.460;11.868;2023-08-01T11:49:17;3.07;;;2.20;;
6358;SDS011;3212;51.460;11.868;2023-08-01T11:52:40;3.40;;;2.40;;
6358;SDS011;3212;51.460;11.868;2023-08-01T11:56:03;3.00;;;2.60;;
6358;SDS011;3212;51.460;11.868;2023-08-01T11:59:26;3.77;;;2.50;;
6358;SDS011;3212;51.460;11.868;2023-08-01T12:02:48;4.80;;;2.87;;
6358;SDS011;3212;51.460;11.868;2023-08-01T12:06:11;4.45;;;2.87;;
6358;SDS011;3212;51.460;11.868;2023-08-01T12:09:33;6.60;;;3.20;;
6358;SDS011;3212;51.460;11.868;2023-08-01T12:12:56;3.80;;;2.90;;
6358;SDS011;3212;51.460;11.868;2023-08-01T12:16:19;5.00;;;3.20;;
6358;SDS011;3212;51.460;11.868;2023-08-01T12:19:42;3.90;;;3.50;;
6358;SDS011;3212;51.460;11.868;2023-08-01T12:23:05;4.10;;;2.87;;
6358;SDS011;3212;51.460;11.868;2023-08-01T12:26:27;4.40;;;3.17;;
6358;SDS011;3212;51.460;11.868;2023-08-01T12:29:50;3.37;;;2.90;;
6358;SDS011;3212;51.460;11.868;2023-08-01T12:33:12;5.50;;;3.53;;
6358;SDS011;3212;51.460;11.868;2023-08-01T12:36:35;4.20;;;3.20;;
6358;SDS011;3212;51.460;11.868;2023-08-01T12:39:58;4.47;;;3.70;;
6358;SDS011;3212;51.460;11.868;2023-08-01T12:43:21;3.83;;;3.40;;
6358;SDS011;3212;51.460;11.868;2023-08-01T12:46:43;3.90;;;3.50;;
6358;SDS011;3212;51.460;11.868;2023-08-01T12:50:06;3.83;;;3.30;;
6358;SDS011;3212;51.460;11.868;2023-08-01T12:53:29;3.97;;;3.57;;
6358;SDS011;3212;51.460;11.868;2023-08-01T12:56:52;4.20;;;3.60;;
6358;SDS011;3212;51.460;11.868;2023-08-01T13:00:15;3.67;;;3.27;;
6358;SDS011;3212;51.460;11.868;2023-08-01T13:03:37;5.20;;;3.70;;
6358;SDS011;3212;51.460;11.868;2023-08-01T13:07:00;4.63;;;3.57;;
6358;SDS011;3212;51.460;11.868;2023-08-01T13:10:22;4.70;;;3.57;;
6358;SDS011;3212;51.460;11.868;2023-08-01T13:13:46;3.37;;;3.00;;
6358;SDS011;3212;51.460;11.868;2023-08-01T13:17:09;5.07;;;3.20;;
6358;SDS011;3212;51.460;11.868;2023-08-01T13:20:31;4.20;;;3.80;;
6358;SDS011;3212;51.460;11.868;2023-08-01T13:23:54;5.23;;;3.70;;
6358;SDS011;3212;51.460;11.868;2023-08-01T13:27:16;5.07;;;3.80;;
6358;SDS011;3212;51.460;11.868;2023-08-01T13:30:39;4.47;;;3.70;;
6358;SDS011;3212;51.460;11.868;2023-08-01T13:34:01;4.67;;;3.57;;
6358;SDS011;3212;51.460;11.868;2023-08-01T13:37:23;4.20;;;3.30;;
6358;SDS011;3212;51.460;11.868;2023-08-01T13:40:46;3.87;;;3.53;;
6358;SDS011;3212;51.460;11.868;2023-08-01T13:44:08;3.50;;;3.20;;
6358;SDS011;3212;51.460;11.868;2023-08-01T13:47:31;4.67;;;3.27;;
6358;SDS011;3212;51.460;11.868;2023-08-01T13:50:57;3.00;;;2.70;;
6358;SDS011;3212;51.460;11.868;2023-08-01T13:54:16;3.43;;;2.87;;
6358;SDS011;3212;51.460;11.868;2023-08-01T13:57:39;3.30;;;3.00;;
6358;SDS011;3212;51.460;11.868;2023-08-01T14:01:03;3.10;;;2.80;;
6358;SDS011;3212;51.460;11.868;2023-08-01T14:04:26;4.90;;;3.50;;
6358;SDS011;3212;51.460;11.868;2023-08-01T14:07:48;3.50;;;2.90;;
6358;SDS011;3212;51.460;11.868;2023-08-01T14:11:11;4.83;;;2.93;;
6358;SDS011;3212;51.460;11.868;2023-08-01T14:14:34;3.57;;;2.63;;
6358;SDS011;3212;51.460;11.868;2023-08-01T14:17:56;2.90;;;2.60;;
6358;SDS011;3212;51.460;11.868;2023-08-01T14:21:19;3.07;;;2.77;;
6358;SDS011;3212;51.460;11.868;2023-08-01T14:24:41;2.83;;;2.50;;
6358;SDS011;3212;51.460;11.868;2023-08-01T14:28:04;3.20;;;2.43;;
6358;SDS011;3212;51.460;11.868;2023-08-01T14:31:27;2.77;;;2.47;;
6358;SDS011;3212;51.460;11.868;2023-08-01T14:34:50;2.73;;;2.30;;
6358;SDS011;3212;51.460;11.868;2023-08-01T14:38:12;4.00;;;2.40;;
6358;SDS011;3212;51.460;11.868;2023-08-01T14:41:35;3.53;;;2.27;;
6358;SDS011;3212;51.460;11.868;2023-08-01T14:44:57;4.77;;;2.33;;
6358;SDS011;3212;51.460;11.868;2023-08-01T14:48:21;2.40;;;2.20;;
6358;SDS011;3212;51.460;11.868;2023-08-01T14:51:43;2.70;;;2.30;;
6358;SDS011;3212;51.460;11.868;2023-08-01T14:55:06;2.80;;;2.43;;
6358;SDS011;3212;51.460;11.868;2023-08-01T14:58:29;2.20;;;2.00;;
6358;SDS011;3212;51.460;11.868;2023-08-01T15:01:52;2.33;;;2.10;;
6358;SDS011;3212;51.460;11.868;2023-08-01T15:05:15;3.47;;;2.10;;
6358;SDS011;3212;51.460;11.868;2023-08-01T15:08:38;2.40;;;1.80;;
6358;SDS011;3212;51.460;11.868;2023-08-01T15:12:00;2.33;;;2.13;;
6358;SDS011;3212;51.460;11.868;2023-08-01T15:15:23;2.37;;;1.77;;
6358;SDS011;3212;51.460;11.868;2023-08-01T15:18:47;2.10;;;1.83;;
6358;SDS011;3212;51.460;11.868;2023-08-01T15:22:10;3.40;;;2.50;;
6358;SDS011;3212;51.460;11.868;2023-08-01T15:25:33;3.93;;;2.10;;
6358;SDS011;3212;51.460;11.868;2023-08-01T15:28:55;3.40;;;2.20;;
6358;SDS011;3212;51.460;11.868;2023-08-01T15:32:18;2.73;;;1.93;;
6358;SDS011;3212;51.460;11.868;2023-08-01T15:35:41;1.90;;;1.80;;
6358;SDS011;3212;51.460;11.868;2023-08-01T15:39:03;3.43;;;1.80;;
6358;SDS011;3212;51.460;11.868;2023-08-01T15:42:26;2.40;;;2.00;;
6358;SDS011;3212;51.460;11.868;2023-08-01T15:45:48;3.20;;;1.90;;
6358;SDS011;3212;51.460;11.868;2023-08-01T15:49:11;4.80;;;2.50;;
6358;SDS011;3212;51.460;11.868;2023-08-01T15:52:40;5.00;;;2.77;;
6358;SDS011;3212;51.460;11.868;2023-08-01T15:56:18;3.10;;;2.60;;
6358;SDS011;3212;51.460;11.868;2023-08-01T15:59:41;3.90;;;2.20;;
6358;SDS011;3212;51.460;11.868;2023-08-01T16:03:05;2.10;;;2.00;;
6358;SDS011;3212;51.460;11.868;2023-08-01T16:06:28;9.07;;;3.40;;
6358;SDS011;3212;51.460;11.868;2023-08-01T16:09:52;4.37;;;2.70;;
6358;SDS011;3212;51.460;11.868;2023-08-01T16:13:14;2.40;;;2.20;;
6358;SDS011;3212;51.460;11.868;2023-08-01T16:16:37;2.37;;;2.17;;
6358;SDS011;3212;51.460;11.868;2023-08-01T16:20:00;3.67;;;2.40;;
6358;SDS011;3212;51.460;11.868;2023-08-01T16:23:22;6.13;;;1.83;;
6358;SDS011;3212;51.460;11.868;2023-08-01T16:26:46;3.20;;;1.63;;
6358;SDS011;3212;51.460;11.868;2023-08-01T16:30:08;2.90;;;1.83;;
6358;SDS011;3212;51.460;11.868;2023-08-01T16:33:32;5.30;;;1.83;;
6358;SDS011;3212;51.460;11.868;2023-08-01T16:36:54;2.83;;;1.90;;
6358;SDS011;3212;51.460;11.868;2023-08-01T16:40:16;2.40;;;1.93;;
6358;SDS011;3212;51.460;11.868;2023-08-01T16:43:39;1.77;;;1.67;;
6358;SDS011;3212;51.460;11.868;2023-08-01T16:47:01;2.70;;;1.50;;
6358;SDS011;3212;51.460;11.868;2023-08-01T16:50:24;3.80;;;1.77;;
6358;SDS011;3212;51.460;11.868;2023-08-01T16:53:47;1.60;;;1.50;;
6358;SDS011;3212;51.460;11.868;2023-08-01T16:57:09;1.80;;;1.70;;
6358;SDS011;3212;51.460;11.868;2023-08-01T17:00:32;2.17;;;1.77;;
6358;SDS011;3212;51.460;11.868;2023-08-01T17:03:56;1.60;;;1.50;;
6358;SDS011;3212;51.460;11.868;2023-08-01T17:07:18;2.30;;;1.60;;
6358;SDS011;3212;51.460;11.868;2023-08-01T17:10:42;2.07;;;1.90;;
6358;SDS011;3212;51.460;11.868;2023-08-01T17:14:04;2.00;;;1.80;;
6358;SDS011;3212;51.460;11.868;2023-08-01T17:17:27;2.30;;;1.90;;
6358;SDS011;3212;51.460;11.868;2023-08-01T17:20:49;1.60;;;1.50;;
6358;SDS011;3212;51.460;11.868;2023-08-01T17:24:12;3.90;;;1.70;;
6358;SDS011;3212;51.460;11.868;2023-08-01T17:27:35;2.30;;;1.97;;
6358;SDS011;3212;51.460;11.868;2023-08-01T17:31:04;1.77;;;1.50;;
6358;SDS011;3212;51.460;11.868;2023-08-01T17:34:26;2.43;;;1.90;;
6358;SDS011;3212;51.460;11.868;2023-08-01T17:37:48;3.10;;;1.70;;
6358;SDS011;3212;51.460;11.868;2023-08-01T17:41:17;1.87;;;1.40;;
6358;SDS011;3212;51.460;11.868;2023-08-01T17:44:42;3.43;;;1.77;;
6358;SDS011;3212;51.460;11.868;2023-08-01T17:48:05;3.07;;;1.70;;
6358;SDS011;3212;51.460;11.868;2023-08-01T17:51:27;3.07;;;1.70;;
6358;SDS011;3212;51.460;11.868;2023-08-01T17:54:50;3.10;;;2.00;;
6358;SDS011;3212;51.460;11.868;2023-08-01T17:58:13;3.40;;;1.93;;
6358;SDS011;3212;51.460;11.868;2023-08-01T18:01:35;1.60;;;1.50;;
6358;SDS011;3212;51.460;11.868;2023-08-01T18:04:58;3.73;;;2.00;;
6358;SDS011;3212;51.460;11.868;2023-08-01T18:08:21;2.60;;;1.97;;
6358;SDS011;3212;51.460;11.868;2023-08-01T18:11:43;1.70;;;1.60;;
6358;SDS011;3212;51.460;11.868;2023-08-01T18:15:06;2.70;;;1.90;;
6358;SDS011;3212;51.460;11.868;2023-08-01T18:18:28;3.80;;;2.07;;
6358;SDS011;3212;51.460;11.868;2023-08-01T18:21:52;1.60;;;1.50;;
6358;SDS011;3212;51.460;11.868;2023-08-01T18:25:14;2.43;;;1.60;;
6358;SDS011;3212;51.460;11.868;2023-08-01T18:28:36;2.80;;;1.60;;
6358;SDS011;3212;51.460;11.868;2023-08-01T18:31:59;4.50;;;1.57;;
6358;SDS011;3212;51.460;11.868;2023-08-01T18:35:21;1.80;;;1.60;;
6358;SDS011;3212;51.460;11.868;2023-08-01T18:38:44;2.37;;;2.17;;
6358;SDS011;3212;51.460;11.868;2023-08-01T18:42:06;4.30;;;2.50;;
6358;SDS011;3212;51.460;11.868;2023-08-01T18:45:29;9.00;;;2.27;;
6358;SDS011;3212;51.460;11.868;2023-08-01T18:48:51;1.90;;;1.70;;
6358;SDS011;3212;51.460;11.868;2023-08-01T18:52:15;1.83;;;1.73;;
6358;SDS011;3212;51.460;11.868;2023-08-01T18:55:38;1.70;;;1.53;;
6358;SDS011;3212;51.460;11.868;2023-08-01T18:59:00;2.00;;;1.47;;
6358;SDS011;3212;51.460;11.868;2023-08-01T19:02:23;2.10;;;1.70;;
6358;SDS011;3212;51.460;11.868;2023-08-01T19:05:46;2.50;;;1.80;;
6358;SDS011;3212;51.460;11.868;2023-08-01T19:09:08;3.33;;;1.83;;
6358;SDS011;3212;51.460;11.868;2023-08-01T19:12:31;2.50;;;1.90;;
6358;SDS011;3212;51.460;11.868;2023-08-01T19:15:54;1.60;;;1.50;;
6358;SDS011;3212;51.460;11.868;2023-08-01T19:19:17;3.63;;;1.80;;
6358;SDS011;3212;51.460;11.868;2023-08-01T19:22:40;3.90;;;1.67;;
6358;SDS011;3212;51.460;11.868;2023-08-01T19:26:05;3.13;;;1.50;;
6358;SDS011;3212;51.460;11.868;2023-08-01T19:29:28;3.00;;;1.50;;
6358;SDS011;3212;51.460;11.868;2023-08-01T19:32:50;1.77;;;1.63;;
6358;SDS011;3212;51.460;11.868;2023-08-01T19:36:12;2.03;;;1.83;;
6358;SDS011;3212;51.460;11.868;2023-08-01T19:39:36;2.40;;;1.73;;
6358;SDS011;3212;51.460;11.868;2023-08-01T19:42:58;5.10;;;1.87;;
6358;SDS011;3212;51.460;11.868;2023-08-01T19:46:21;3.00;;;1.83;;
6358;SDS011;3212;51.460;11.868;2023-08-01T19:49:44;3.63;;;2.07;;
6358;SDS011;3212;51.460;11.868;2023-08-01T19:53:07;2.00;;;1.80;;
6358;SDS011;3212;51.460;11.868;2023-08-01T19:56:29;2.50;;;1.77;;
6358;SDS011;3212;51.460;11.868;2023-08-01T19:59:53;1.83;;;1.70;;
6358;SDS011;3212;51.460;11.868;2023-08-01T20:03:15;2.90;;;1.93;;
6358;SDS011;3212;51.460;11.868;2023-08-01T20:06:37;2.90;;;2.17;;
6358;SDS011;3212;51.460;11.868;2023-08-01T20:10:00;2.00;;;1.80;;
6358;SDS011;3212;51.460;11.868;2023-08-01T20:13:23;2.30;;;1.93;;
6358;SDS011;3212;51.460;11.868;2023-08-01T20:16:46;3.23;;;2.10;;
6358;SDS011;3212;51.460;11.868;2023-08-01T20:20:08;4.40;;;2.23;;
6358;SDS011;3212;51.460;11.868;2023-08-01T20:23:31;2.33;;;1.90;;
6358;SDS011;3212;51.460;11.868;2023-08-01T20:26:54;2.60;;;2.10;;
6358;SDS011;3212;51.460;11.868;2023-08-01T20:30:17;4.67;;;2.40;;
6358;SDS011;3212;51.460;11.868;2023-08-01T20:33:40;2.60;;;2.07;;
6358;SDS011;3212;51.460;11.868;2023-08-01T20:37:02;4.80;;;2.37;;
6358;SDS011;3212;51.460;11.868;2023-08-01T20:40:29;4.93;;;1.90;;